createdAt,value
2022-12-03T00:00:19.704Z,32.38
2022-12-03T00:02:47.445Z,28.75
2022-12-03T00:05:16.528Z,29.05
2022-12-03T00:07:44.279Z,31.10
2022-12-03T00:10:12.579Z,28.95
2022-12-03T00:12:41.050Z,25.33
2022-12-03T00:15:09.906Z,31.58
2022-12-03T00:17:37.582Z,29.75
2022-12-03T00:20:05.727Z,31.13
2022-12-03T00:22:34.708Z,30.63
2022-12-03T00:25:02.300Z,22.08
2022-12-03T00:27:29.907Z,29.50
2022-12-03T00:29:57.505Z,30.73
2022-12-03T00:32:25.156Z,30.85
2022-12-03T00:34:52.941Z,26.92
2022-12-03T00:37:20.845Z,28.25
2022-12-03T00:39:50.416Z,28.95
2022-12-03T00:42:18.063Z,26.77
2022-12-03T00:44:45.699Z,27.80
2022-12-03T00:47:13.625Z,28.90
2022-12-03T00:49:41.357Z,23.33
2022-12-03T00:52:09.092Z,23.88
2022-12-03T00:54:36.732Z,30.98
2022-12-03T00:57:05.759Z,32.70
2022-12-03T00:59:33.352Z,36.90
2022-12-03T01:02:01.081Z,34.58
2022-12-03T01:04:28.760Z,31.15
2022-12-03T01:06:56.490Z,33.13
2022-12-03T01:09:24.102Z,29.88
2022-12-03T01:11:51.835Z,42.45
2022-12-03T01:14:21.276Z,30.88
2022-12-03T01:16:49.282Z,34.03
2022-12-03T01:19:17.310Z,33.72
2022-12-03T01:21:45.606Z,31.60
2022-12-03T01:24:13.331Z,35.88
2022-12-03T01:26:41.090Z,33.30
2022-12-03T01:29:08.722Z,33.75
2022-12-03T01:31:55.241Z,33.95
2022-12-03T01:34:22.873Z,25.98
2022-12-03T01:36:52.415Z,31.58
2022-12-03T01:39:20.367Z,21.88
2022-12-03T01:41:48.244Z,22.52
2022-12-03T01:44:17.165Z,26.83
2022-12-03T01:46:46.757Z,19.48
2022-12-03T01:49:16.292Z,26.40
2022-12-03T01:51:43.963Z,25.73
2022-12-03T01:54:15.682Z,29.48
2022-12-03T01:56:43.451Z,35.20
2022-12-03T01:59:14.660Z,31.98
2022-12-03T02:01:42.345Z,28.90
2022-12-03T02:04:13.349Z,23.08
2022-12-03T02:06:41.450Z,29.77
2022-12-03T02:09:10.986Z,32.13
2022-12-03T02:11:39.776Z,21.23
2022-12-03T02:14:08.599Z,19.23
2022-12-03T02:16:36.616Z,23.35
2022-12-03T02:19:05.691Z,26.88
2022-12-03T02:21:37.539Z,30.35
2022-12-03T02:24:07.519Z,23.35
2022-12-03T02:26:36.589Z,23.20
2022-12-03T02:29:04.257Z,25.25
2022-12-03T02:31:32.435Z,22.20
2022-12-03T02:34:00.131Z,22.23
2022-12-03T02:36:28.036Z,22.50
2022-12-03T02:38:55.665Z,20.88
2022-12-03T02:41:37.331Z,23.83
2022-12-03T02:44:07.233Z,23.80
2022-12-03T02:46:35.257Z,27.98
2022-12-03T02:49:03.099Z,25.88
2022-12-03T02:51:30.924Z,21.85
2022-12-03T02:53:59.296Z,24.98
2022-12-03T02:56:28.098Z,20.33
2022-12-03T02:58:57.811Z,21.90
2022-12-03T03:01:26.980Z,23.33
2022-12-03T03:03:55.088Z,24.88
2022-12-03T03:06:22.851Z,30.30
2022-12-03T03:08:50.661Z,25.95
2022-12-03T03:11:18.520Z,24.50
2022-12-03T03:13:46.274Z,26.05
2022-12-03T03:16:14.087Z,23.50
2022-12-03T03:18:43.308Z,24.98
2022-12-03T03:21:11.003Z,22.88
2022-12-03T03:23:39.005Z,26.30
2022-12-03T03:26:09.694Z,24.38
2022-12-03T03:28:39.006Z,28.20
2022-12-03T03:31:08.349Z,19.33
2022-12-03T03:33:36.224Z,19.23
2022-12-03T03:36:05.510Z,25.13
2022-12-03T03:38:33.427Z,25.10
2022-12-03T03:41:02.200Z,27.08
2022-12-03T03:43:30.748Z,19.83
2022-12-03T03:45:58.431Z,21.25
2022-12-03T03:48:26.136Z,27.10
2022-12-03T03:50:54.009Z,28.95
2022-12-03T03:53:23.588Z,30.25
2022-12-03T03:55:51.392Z,24.30
2022-12-03T03:58:19.067Z,19.58
2022-12-03T04:00:47.187Z,24.27
2022-12-03T04:03:14.998Z,25.45
2022-12-03T04:05:42.797Z,24.05
2022-12-03T04:08:10.588Z,24.02
2022-12-03T04:10:57.213Z,25.63
2022-12-03T04:13:24.825Z,26.48
2022-12-03T04:15:52.644Z,25.08
2022-12-03T04:18:37.784Z,29.17
2022-12-03T04:21:22.747Z,19.23
2022-12-03T04:23:50.419Z,32.97
2022-12-03T04:26:36.665Z,23.23
2022-12-03T04:29:04.422Z,22.08
2022-12-03T04:31:49.298Z,25.95
2022-12-03T04:34:45.674Z,26.85
2022-12-03T04:39:40.775Z,23.65
2022-12-03T04:42:09.816Z,22.27
2022-12-03T04:44:37.407Z,28.00
2022-12-03T04:47:06.856Z,26.58
2022-12-03T04:49:34.829Z,25.77
2022-12-03T04:52:02.591Z,20.92
2022-12-03T04:54:30.654Z,23.92
2022-12-03T04:56:58.301Z,26.08
2022-12-03T04:59:27.295Z,31.13
2022-12-03T05:01:54.984Z,23.40
2022-12-03T05:04:22.645Z,18.85
2022-12-03T05:06:50.283Z,22.08
2022-12-03T05:09:18.269Z,22.23
2022-12-03T05:11:46.152Z,18.40
2022-12-03T05:14:13.878Z,14.82
2022-12-03T05:16:43.000Z,19.27
2022-12-03T05:19:10.664Z,25.13
2022-12-03T05:21:37.265Z,22.63
2022-12-03T05:24:05.270Z,24.88
2022-12-03T05:26:32.868Z,21.20
2022-12-03T05:29:15.719Z,23.73
2022-12-03T05:31:44.914Z,19.27
2022-12-03T05:34:12.650Z,22.88
2022-12-03T05:36:40.251Z,22.48
2022-12-03T05:39:07.857Z,19.92
2022-12-03T05:41:52.691Z,23.15
2022-12-03T05:44:20.800Z,27.92
2022-12-03T05:46:50.025Z,18.83
2022-12-03T05:49:17.679Z,23.60
2022-12-03T05:51:45.321Z,22.73
2022-12-03T05:54:12.963Z,23.60
2022-12-03T05:56:40.556Z,23.15
2022-12-03T05:59:08.163Z,23.38
2022-12-03T06:01:35.809Z,25.67
2022-12-03T06:04:04.881Z,25.35
2022-12-03T06:06:32.542Z,25.35
2022-12-03T06:09:00.175Z,21.92
2022-12-03T06:11:29.888Z,24.15
2022-12-03T06:13:57.494Z,21.60
2022-12-03T06:16:25.157Z,22.02
2022-12-03T06:18:52.894Z,21.88
2022-12-03T06:21:21.923Z,21.25
2022-12-03T06:23:49.539Z,22.42
2022-12-03T06:26:17.149Z,26.00
2022-12-03T06:28:46.468Z,24.08
2022-12-03T06:31:14.221Z,21.40
2022-12-03T06:33:41.936Z,19.05
2022-12-03T06:36:09.808Z,22.75
2022-12-03T06:38:38.822Z,22.48
2022-12-03T06:41:06.593Z,21.85
2022-12-03T06:43:34.282Z,28.15
2022-12-03T06:46:01.908Z,21.55
2022-12-03T06:48:29.578Z,24.25
2022-12-03T06:50:57.281Z,24.38
2022-12-03T06:53:25.096Z,23.15
2022-12-03T06:55:54.201Z,28.95
2022-12-03T06:58:21.870Z,26.63
2022-12-03T07:00:49.696Z,22.00
2022-12-03T07:03:17.426Z,27.30
2022-12-03T07:05:45.091Z,27.38
2022-12-03T07:08:12.892Z,25.38
2022-12-03T07:10:40.670Z,22.90
2022-12-03T07:13:09.637Z,35.38
2022-12-03T07:15:37.313Z,25.17
2022-12-03T07:18:05.006Z,25.63
2022-12-03T07:20:32.643Z,29.58
2022-12-03T07:23:00.309Z,26.67
2022-12-03T07:25:28.441Z,26.40
2022-12-03T07:27:56.050Z,26.80
2022-12-03T07:30:25.687Z,26.13
2022-12-03T07:32:53.413Z,26.63
2022-12-03T07:35:21.654Z,26.77
2022-12-03T07:37:49.309Z,29.40
2022-12-03T07:40:17.254Z,29.10
2022-12-03T07:42:45.177Z,23.42
2022-12-03T07:45:12.836Z,30.85
2022-12-03T07:47:42.287Z,27.20
2022-12-03T07:50:10.452Z,32.97
2022-12-03T07:52:38.544Z,31.15
2022-12-03T07:55:06.673Z,30.63
2022-12-03T07:57:34.365Z,25.83
2022-12-03T08:00:02.039Z,34.63
2022-12-03T08:02:29.674Z,34.67
2022-12-03T08:04:58.704Z,26.17
2022-12-03T08:07:26.336Z,25.08
2022-12-03T08:09:54.167Z,25.80
2022-12-03T08:12:24.010Z,24.67
2022-12-03T08:14:51.770Z,31.05
2022-12-03T08:17:21.732Z,25.85
2022-12-03T08:19:49.365Z,27.77
2022-12-03T08:22:18.614Z,30.75
2022-12-03T08:24:46.226Z,23.92
2022-12-03T08:27:17.433Z,26.20
2022-12-03T08:29:45.275Z,29.15
2022-12-03T08:32:13.832Z,30.42
2022-12-03T08:34:42.469Z,23.58
2022-12-03T08:37:13.676Z,23.92
2022-12-03T08:39:45.224Z,22.83
2022-12-03T08:42:31.597Z,23.80
2022-12-03T08:45:00.876Z,30.13
2022-12-03T08:47:32.235Z,22.80
2022-12-03T08:50:04.343Z,26.00
2022-12-03T08:52:33.316Z,27.15
2022-12-03T08:55:10.977Z,25.02
2022-12-03T08:57:39.329Z,26.92
2022-12-03T09:00:15.521Z,26.98
2022-12-03T09:02:46.314Z,33.92
2022-12-03T09:05:16.430Z,35.50
2022-12-03T09:07:44.127Z,21.98
2022-12-03T09:10:13.367Z,25.15
2022-12-03T09:12:41.021Z,28.90
2022-12-03T09:15:09.035Z,35.55
2022-12-03T09:17:37.877Z,29.63
2022-12-03T09:20:05.966Z,31.67
2022-12-03T09:22:33.594Z,27.65
2022-12-03T09:25:01.314Z,29.50
2022-12-03T09:27:30.360Z,28.05
2022-12-03T09:29:58.138Z,25.48
2022-12-03T09:32:26.037Z,32.38
2022-12-03T09:34:54.297Z,33.47
2022-12-03T09:37:23.331Z,30.77
2022-12-03T09:39:50.984Z,29.40
2022-12-03T09:42:18.706Z,30.85
2022-12-03T09:44:47.653Z,26.25
2022-12-03T09:47:15.411Z,22.38
2022-12-03T09:49:43.479Z,24.15
2022-12-03T09:52:13.156Z,33.35
2022-12-03T09:54:46.886Z,30.95
2022-12-03T09:57:15.149Z,30.23
2022-12-03T09:59:42.812Z,24.85
2022-12-03T10:02:19.209Z,29.15
2022-12-03T10:04:46.915Z,30.55
2022-12-03T10:07:14.843Z,29.48
2022-12-03T10:09:42.776Z,25.60
2022-12-03T10:12:12.162Z,30.27
2022-12-03T10:14:40.105Z,26.27
2022-12-03T10:17:07.917Z,27.17
2022-12-03T10:19:37.654Z,31.80
2022-12-03T10:22:05.303Z,29.30
2022-12-03T10:24:33.450Z,31.40
2022-12-03T10:27:01.940Z,29.35
2022-12-03T10:29:34.036Z,34.72
2022-12-03T10:32:02.876Z,34.72
2022-12-03T10:34:31.855Z,30.73
2022-12-03T10:37:11.917Z,27.83
2022-12-03T10:39:56.566Z,29.15
2022-12-03T10:42:24.981Z,32.75
2022-12-03T10:45:07.487Z,39.22
2022-12-03T10:47:36.477Z,32.47
2022-12-03T10:50:05.674Z,30.23
2022-12-03T10:52:34.838Z,32.38
2022-12-03T10:55:02.654Z,31.73
2022-12-03T10:57:30.403Z,29.95
2022-12-03T10:59:58.000Z,24.63
2022-12-03T11:02:26.007Z,28.88
2022-12-03T11:04:54.015Z,29.52
2022-12-03T11:07:24.648Z,32.95
2022-12-03T11:09:55.724Z,32.78
2022-12-03T11:12:24.214Z,31.27
2022-12-03T11:15:06.508Z,28.20
2022-12-03T11:17:41.910Z,30.05
2022-12-03T11:20:11.132Z,37.70
2022-12-03T11:22:43.159Z,32.38
2022-12-03T11:25:32.138Z,32.25
2022-12-03T11:28:17.571Z,27.95
2022-12-03T11:30:59.177Z,23.67
2022-12-03T11:33:28.025Z,27.02
2022-12-03T11:36:13.457Z,24.33
2022-12-03T11:38:50.716Z,21.40
2022-12-03T11:41:21.505Z,23.13
2022-12-03T11:43:59.824Z,27.92
2022-12-03T11:46:30.690Z,26.40
2022-12-03T11:48:59.745Z,26.08
2022-12-03T11:51:28.837Z,32.85
2022-12-03T11:53:57.445Z,26.15
2022-12-03T11:56:26.201Z,33.97
2022-12-03T11:58:58.876Z,25.33
2022-12-03T12:01:38.489Z,32.05
2022-12-03T12:04:07.389Z,25.55
2022-12-03T12:06:42.478Z,33.28
2022-12-03T12:09:10.587Z,24.75
2022-12-03T12:11:40.480Z,32.75
2022-12-03T12:14:08.467Z,26.25
2022-12-03T12:16:38.288Z,25.10
2022-12-03T12:19:24.409Z,30.67
2022-12-03T12:21:52.814Z,28.85
2022-12-03T12:24:36.002Z,26.67
2022-12-03T12:27:05.643Z,31.33
2022-12-03T12:29:33.457Z,28.95
2022-12-03T12:32:07.464Z,29.20
2022-12-03T12:34:35.358Z,27.65
2022-12-03T12:37:03.573Z,32.47
2022-12-03T12:39:32.029Z,23.05
2022-12-03T12:41:59.789Z,37.10
2022-12-03T12:44:28.576Z,35.22
2022-12-03T12:46:56.528Z,35.35
2022-12-03T12:49:26.956Z,31.73
2022-12-03T12:51:55.173Z,33.45
2022-12-03T12:54:22.800Z,35.05
2022-12-03T12:56:51.013Z,29.45
2022-12-03T12:59:19.995Z,28.60
2022-12-03T13:01:48.520Z,32.28
2022-12-03T13:04:17.477Z,27.40
2022-12-03T13:06:47.211Z,28.83
2022-12-03T13:09:18.057Z,34.50
2022-12-03T13:11:46.689Z,30.90
2022-12-03T13:14:18.677Z,31.50
2022-12-03T13:16:47.171Z,29.02
2022-12-03T13:19:21.741Z,27.52
2022-12-03T13:21:50.996Z,34.55
2022-12-03T13:24:36.607Z,24.05
2022-12-03T13:27:09.831Z,27.80
2022-12-03T13:29:37.456Z,38.20
2022-12-03T13:32:12.142Z,37.80
2022-12-03T13:34:39.838Z,33.53
2022-12-03T13:37:13.263Z,29.17
2022-12-03T13:39:43.685Z,26.52
2022-12-03T13:42:36.117Z,22.40
2022-12-03T13:45:04.443Z,27.38
2022-12-03T13:47:33.454Z,32.10
2022-12-03T13:50:03.651Z,28.15
2022-12-03T13:52:33.972Z,28.38
2022-12-03T13:55:03.671Z,29.63
2022-12-03T13:57:31.330Z,28.08
2022-12-03T13:59:58.927Z,29.65
2022-12-03T14:02:26.609Z,22.42
2022-12-03T14:04:59.764Z,26.90
2022-12-03T14:07:28.086Z,28.88
2022-12-03T14:09:57.426Z,32.67
2022-12-03T14:12:33.701Z,29.42
2022-12-03T14:15:01.872Z,33.55
2022-12-03T14:17:30.307Z,34.88
2022-12-03T14:19:58.040Z,27.38
2022-12-03T14:22:25.641Z,29.20
2022-12-03T14:24:53.618Z,28.17
2022-12-03T14:27:23.342Z,29.65
2022-12-03T14:29:51.540Z,26.85
2022-12-03T14:32:19.530Z,27.00
2022-12-03T14:34:47.187Z,25.35
2022-12-03T14:37:15.039Z,29.10
2022-12-03T14:39:43.137Z,34.70
2022-12-03T14:42:16.942Z,29.65
2022-12-03T14:44:46.962Z,33.78
2022-12-03T14:47:15.078Z,34.00
2022-12-03T14:49:42.670Z,38.63
2022-12-03T14:52:12.479Z,35.22
2022-12-03T14:54:42.304Z,26.85
2022-12-03T14:57:11.412Z,36.00
2022-12-03T14:59:39.233Z,28.42
2022-12-03T15:02:08.369Z,37.70
2022-12-03T15:04:36.017Z,38.20
2022-12-03T15:07:03.736Z,31.38
2022-12-03T15:09:31.339Z,27.15
2022-12-03T15:12:00.116Z,29.15
2022-12-03T15:14:27.822Z,30.02
2022-12-03T15:16:55.649Z,35.45
2022-12-03T15:19:24.815Z,29.80
2022-12-03T15:21:52.414Z,26.20
2022-12-03T15:24:20.621Z,28.48
2022-12-03T15:26:49.248Z,29.70
2022-12-03T15:29:16.914Z,28.92
2022-12-03T15:31:44.766Z,26.30
2022-12-03T15:34:15.020Z,28.45
2022-12-03T15:36:47.949Z,31.77
2022-12-03T15:39:15.561Z,27.55
2022-12-03T15:41:43.173Z,29.58
2022-12-03T15:44:10.801Z,29.08
2022-12-03T15:46:38.545Z,29.85
2022-12-03T15:49:06.294Z,29.40
2022-12-03T15:51:33.899Z,31.85
2022-12-03T15:54:02.866Z,30.98
2022-12-03T15:56:30.492Z,31.92
2022-12-03T15:58:58.214Z,33.60
2022-12-03T16:01:26.014Z,30.85
2022-12-03T16:03:53.662Z,25.40
2022-12-03T16:06:21.269Z,25.15
2022-12-03T16:08:48.988Z,25.65
2022-12-03T16:11:17.998Z,24.15
2022-12-03T16:13:45.829Z,30.10
2022-12-03T16:16:13.544Z,32.38
2022-12-03T16:18:41.438Z,28.10
2022-12-03T16:21:09.156Z,22.52
2022-12-03T16:23:36.795Z,26.88
2022-12-03T16:26:04.590Z,34.20
2022-12-03T16:28:33.550Z,34.42
2022-12-03T16:31:01.242Z,27.92
2022-12-03T16:33:28.995Z,30.13
2022-12-03T16:35:56.699Z,29.92
2022-12-03T16:38:24.533Z,29.95
2022-12-03T16:40:52.134Z,26.17
2022-12-03T16:43:19.738Z,26.73
2022-12-03T16:46:20.518Z,27.40
2022-12-03T16:48:48.741Z,30.92
2022-12-03T16:51:16.460Z,25.90
2022-12-03T16:53:44.275Z,38.72
2022-12-03T16:56:13.109Z,28.73
2022-12-03T16:58:40.787Z,26.58
2022-12-03T17:01:10.276Z,27.67
2022-12-03T17:03:38.050Z,27.80
2022-12-03T17:06:06.105Z,27.02
2022-12-03T17:08:33.813Z,26.20
2022-12-03T17:11:01.503Z,36.95
2022-12-03T17:13:29.300Z,34.42
2022-12-03T17:15:56.993Z,33.72
2022-12-03T17:18:26.425Z,29.70
2022-12-03T17:20:54.035Z,34.78
2022-12-03T17:23:21.662Z,37.33
2022-12-03T17:25:49.256Z,33.88
2022-12-03T17:28:21.545Z,31.25
2022-12-03T17:30:49.440Z,29.30
2022-12-03T17:33:17.403Z,32.13
2022-12-03T17:35:46.663Z,33.50
2022-12-03T17:38:14.353Z,34.20
2022-12-03T17:40:44.308Z,30.83
2022-12-03T17:43:11.917Z,35.20
2022-12-03T17:45:39.789Z,34.08
2022-12-03T17:48:08.143Z,33.75
2022-12-03T17:50:35.742Z,31.20
2022-12-03T17:53:07.919Z,37.30
2022-12-03T17:55:41.186Z,38.22
2022-12-03T17:58:12.114Z,32.38
2022-12-03T18:00:39.797Z,25.27
2022-12-03T18:03:07.506Z,29.25
2022-12-03T18:05:35.208Z,32.47
2022-12-03T18:08:04.335Z,28.92
2022-12-03T18:10:32.041Z,27.00
2022-12-03T18:13:01.955Z,36.10
2022-12-03T18:15:30.337Z,29.98
2022-12-03T18:17:58.086Z,33.85
2022-12-03T18:20:25.781Z,23.15
2022-12-03T18:22:53.460Z,32.20
2022-12-03T18:25:22.437Z,32.50
2022-12-03T18:27:50.076Z,31.55
2022-12-03T18:30:17.951Z,32.53
2022-12-03T18:32:46.017Z,31.58
2022-12-03T18:35:13.710Z,33.70
2022-12-03T18:37:41.332Z,29.90
2022-12-03T18:40:13.537Z,29.40
2022-12-03T18:42:42.590Z,29.08
2022-12-03T18:45:12.939Z,33.92
2022-12-03T18:47:40.622Z,32.22
2022-12-03T18:50:09.489Z,35.45
2022-12-03T18:52:38.799Z,35.55
2022-12-03T18:55:07.251Z,35.65
2022-12-03T18:57:34.902Z,31.17
2022-12-03T19:00:11.810Z,32.53
2022-12-03T19:05:28.601Z,45.30
2022-12-03T19:07:56.664Z,38.03
2022-12-03T19:10:24.673Z,36.92
2022-12-03T19:12:52.482Z,34.83
2022-12-03T19:15:21.932Z,34.13
2022-12-03T19:17:49.657Z,34.60
2022-12-03T19:20:17.349Z,30.17
2022-12-03T19:22:44.989Z,33.05
2022-12-03T19:25:13.031Z,38.58
2022-12-03T19:27:40.668Z,30.65
2022-12-03T19:30:08.953Z,44.22
2022-12-03T19:32:38.053Z,35.08
2022-12-03T19:35:07.579Z,32.90
2022-12-03T19:37:35.275Z,32.08
2022-12-03T19:40:03.080Z,33.50
2022-12-03T19:42:31.218Z,44.15
2022-12-03T19:44:58.865Z,36.38
2022-12-03T19:47:28.228Z,29.77
2022-12-03T19:49:57.521Z,40.15
2022-12-03T19:52:25.444Z,37.13
2022-12-03T19:54:53.584Z,39.90
2022-12-03T19:57:23.438Z,39.95
2022-12-03T19:59:51.601Z,36.00
2022-12-03T20:02:19.572Z,29.40
2022-12-03T20:04:47.276Z,33.75
2022-12-03T20:07:18.316Z,31.40
2022-12-03T20:09:45.981Z,32.53
2022-12-03T20:12:13.725Z,40.88
2022-12-03T20:14:41.376Z,41.05
2022-12-03T20:17:09.386Z,34.13
2022-12-03T20:19:37.076Z,35.42
2022-12-03T20:22:04.697Z,34.35
2022-12-03T20:24:33.684Z,39.13
2022-12-03T20:27:01.291Z,33.50
2022-12-03T20:29:28.911Z,36.17
2022-12-03T20:31:56.637Z,45.85
2022-12-03T20:34:24.259Z,38.80
2022-12-03T20:36:51.860Z,35.03
2022-12-03T20:39:19.446Z,42.80
2022-12-03T20:41:48.503Z,39.42
2022-12-03T20:44:16.151Z,28.67
2022-12-03T20:46:43.915Z,33.17
2022-12-03T20:49:11.561Z,45.08
2022-12-03T20:51:39.196Z,39.58
2022-12-03T20:54:06.992Z,38.05
2022-12-03T20:56:35.694Z,35.35
2022-12-03T20:59:06.540Z,39.13
2022-12-03T21:01:34.421Z,37.30
2022-12-03T21:04:03.076Z,35.45
2022-12-03T21:06:30.938Z,41.67
2022-12-03T21:08:59.032Z,45.03
2022-12-03T21:11:29.516Z,45.25
2022-12-03T21:13:57.642Z,36.95
2022-12-03T21:16:51.945Z,33.22
2022-12-03T21:19:17.046Z,40.03
2022-12-03T21:21:44.622Z,43.67
2022-12-03T21:24:13.439Z,37.70
2022-12-03T21:26:41.385Z,37.50
2022-12-03T21:29:09.145Z,34.60
2022-12-03T21:31:39.870Z,38.83
2022-12-03T21:34:08.698Z,43.92
2022-12-03T21:36:36.432Z,37.15
2022-12-03T21:39:04.623Z,42.38
2022-12-03T21:41:32.328Z,33.33
2022-12-03T21:43:59.990Z,38.38
2022-12-03T21:47:12.529Z,38.05
2022-12-03T21:49:19.330Z,33.33
2022-12-03T21:51:47.104Z,32.13
2022-12-03T21:54:14.778Z,38.55
2022-12-03T21:56:42.594Z,31.63
2022-12-03T21:59:10.270Z,42.55
2022-12-03T22:01:39.678Z,38.80
2022-12-03T22:04:10.476Z,35.33
2022-12-03T22:06:39.485Z,37.13
2022-12-03T22:09:07.235Z,41.15
2022-12-03T22:11:34.971Z,35.63
2022-12-03T22:14:04.769Z,33.63
2022-12-03T22:16:32.620Z,39.50
2022-12-03T22:19:00.309Z,35.20
2022-12-03T22:21:27.929Z,40.25
2022-12-03T22:23:57.837Z,33.40
2022-12-03T22:26:25.533Z,35.00
2022-12-03T22:28:53.163Z,43.08
2022-12-03T22:31:21.107Z,33.40
2022-12-03T22:33:49.722Z,39.13
2022-12-03T22:36:21.638Z,40.28
2022-12-03T22:38:49.919Z,24.60
2022-12-03T22:41:19.116Z,38.40
2022-12-03T22:43:47.018Z,36.63
2022-12-03T22:46:15.103Z,34.08
2022-12-03T22:48:43.596Z,38.25
2022-12-03T22:51:12.911Z,38.08
2022-12-03T22:53:40.760Z,41.78
2022-12-03T22:56:08.483Z,32.03
2022-12-03T22:58:38.323Z,26.95
2022-12-03T23:01:07.219Z,32.30
2022-12-03T23:03:34.919Z,33.13
2022-12-03T23:06:02.648Z,38.55
2022-12-03T23:08:30.276Z,28.83
2022-12-03T23:11:01.244Z,35.90
2022-12-03T23:13:28.848Z,44.40
2022-12-03T23:15:58.371Z,36.28
2022-12-03T23:18:26.083Z,31.77
2022-12-03T23:20:54.602Z,41.17
2022-12-03T23:23:23.352Z,36.05
2022-12-03T23:25:57.126Z,35.13
2022-12-03T23:28:25.026Z,36.55
2022-12-03T23:30:52.840Z,41.55
2022-12-03T23:33:22.414Z,42.70
2022-12-03T23:35:50.031Z,38.97
2022-12-03T23:38:17.629Z,37.88
2022-12-03T23:40:48.302Z,35.33
2022-12-03T23:43:16.443Z,38.65
2022-12-03T23:45:44.107Z,30.35
2022-12-03T23:48:11.790Z,31.65
2022-12-03T23:50:41.435Z,34.97
2022-12-03T23:53:09.228Z,31.00
2022-12-03T23:55:39.555Z,36.10
2022-12-03T23:58:07.189Z,37.85
